»·PEaware :: CAX378 CN64-L71

CAX378 :: CN64-L71

FLIGHT INFORMATION

Flight Status: Arrived
Operator:
California Airlines (website)
More flights by this operator :: More flights under this callsign
Pilot: Scott M. (2435)
Aircraft: BEECH AIRCRAFT BEECH AIRLINER
(B190)
More flights by this aircraft type
Origin: CN64
Destination: L71 California City Mun
United States
More flights between these airports :: More routes between these airports
Route: TNP V264 YUCCA PMD
File this flight plan on PilotEdge
Remarks: VFR
Altitude:
(Current/Filed)
8,500ft
Speed:
(Current/Filed)
220kts
Departed: 23-Jun-16 12:13 PM
Arrived: 23-Jun-16 01:06 PM
Distance/Time
Traveled:
Not Available
Distance/Time
To Go:
Arrived

Flight Plot

Page will automatically refresh every two minutes.

Flight plan parsing failed; only flown route is shown


Map Options




Map Legend


Flown Route
Filed Route
Departure Airport
Arrival Airport
Navaid (VOR, NDB)
Fix

Horizontal Profiles

Position Reports

Time Latitude Longitude Heading Altitude Ground
Speed
23-Jun-16 11:51 33.754013 -115.328605 105 564ft 0kts
23-Jun-16 11:52 33.754013 -115.328605 105 564ft 0kts
23-Jun-16 11:53 33.754013 -115.328605 105 564ft 0kts
23-Jun-16 11:54 33.754013 -115.328605 105 564ft 0kts
23-Jun-16 11:55 33.754013 -115.328605 105 564ft 0kts
23-Jun-16 11:56 33.754013 -115.328605 105 564ft 0kts
23-Jun-16 11:57 33.754013 -115.328605 105 564ft 0kts
23-Jun-16 11:58 33.754013 -115.328605 105 564ft 0kts
23-Jun-16 12:00 33.754013 -115.328605 105 564ft 0kts
23-Jun-16 12:01 33.754013 -115.328605 105 564ft 0kts
23-Jun-16 12:01 33.754013 -115.328605 105 564ft 0kts
23-Jun-16 12:03 33.754013 -115.328605 105 564ft 0kts
23-Jun-16 12:03 33.754013 -115.328605 105 564ft 0kts
23-Jun-16 12:04 33.753998 -115.328541 105 564ft 0kts
23-Jun-16 12:05 33.753115 -115.328403 193 564ft 10kts
23-Jun-16 12:06 33.748766 -115.329763 194 564ft 18kts
23-Jun-16 12:07 33.746804 -115.329568 158 564ft 0kts
23-Jun-16 12:08 33.746461 -115.329222 65 564ft 0kts
23-Jun-16 12:09 33.760219 -115.294452 36 1999ft 172kts
23-Jun-16 12:10 33.777627 -115.330015 245 4483ft 170kts
23-Jun-16 12:11 33.775516 -115.385214 310 6530ft 186kts
23-Jun-16 12:12 33.810624 -115.431461 311 8554ft 179kts
23-Jun-16 12:13 33.851408 -115.482478 312 8490ft 233kts
23-Jun-16 12:14 33.897365 -115.540360 312 8469ft 244kts
23-Jun-16 12:15 33.944627 -115.599898 312 8492ft 254kts
23-Jun-16 12:16 33.994852 -115.662555 312 8546ft 264kts
23-Jun-16 12:17 34.045982 -115.725471 312 8603ft 266kts
23-Jun-16 12:18 34.098113 -115.788797 313 8653ft 267kts
23-Jun-16 12:19 34.112140 -115.866383 257 8651ft 259kts
23-Jun-16 12:20 34.103116 -115.952727 264 8648ft 261kts
23-Jun-16 12:21 34.094804 -116.039934 264 8649ft 262kts
23-Jun-16 12:22 34.087331 -116.124468 267 8651ft 265kts
23-Jun-16 12:23 34.082236 -116.209307 267 8637ft 268kts
23-Jun-16 12:24 34.096050 -116.295399 295 8592ft 266kts
23-Jun-16 12:25 34.126840 -116.376329 295 8572ft 266kts
23-Jun-16 12:26 34.166585 -116.447755 330 8578ft 264kts
23-Jun-16 12:27 34.231298 -116.489303 331 8598ft 265kts
23-Jun-16 12:28 34.291244 -116.537379 292 8587ft 264kts
23-Jun-16 12:29 34.309810 -116.623684 287 8558ft 266kts
23-Jun-16 12:30 34.324450 -116.683622 287 8556ft 265kts
23-Jun-16 12:31 34.345399 -116.768451 287 8576ft 263kts
23-Jun-16 12:32 34.366426 -116.852689 287 8447ft 264kts
23-Jun-16 12:33 34.387411 -116.936427 287 8454ft 262kts
23-Jun-16 12:34 34.407814 -117.016815 287 8468ft 263kts
23-Jun-16 12:35 34.429308 -117.100408 287 8491ft 263kts
23-Jun-16 12:36 34.449330 -117.178001 287 8508ft 264kts
23-Jun-16 12:37 34.466927 -117.262366 279 8515ft 264kts
23-Jun-16 12:38 34.477514 -117.348471 279 8521ft 263kts
23-Jun-16 12:39 34.488639 -117.435367 280 8522ft 263kts
23-Jun-16 12:40 34.499767 -117.522243 280 8521ft 263kts
23-Jun-16 12:41 34.510917 -117.609121 280 8522ft 263kts
23-Jun-16 12:42 34.522189 -117.696049 283 8519ft 263kts
23-Jun-16 12:43 34.540227 -117.780828 285 8519ft 263kts
23-Jun-16 12:44 34.558494 -117.864753 286 8514ft 264kts
23-Jun-16 12:45 34.584300 -117.946810 294 8510ft 263kts
23-Jun-16 12:46 34.613086 -118.027813 294 8509ft 263kts
23-Jun-16 12:47 34.641710 -118.108352 293 8514ft 263kts
23-Jun-16 12:48 34.674497 -118.185920 316 8533ft 260kts
23-Jun-16 12:49 34.738082 -118.223631 348 8507ft 265kts
23-Jun-16 12:50 34.806764 -118.236439 348 7287ft 239kts
23-Jun-16 12:51 34.871717 -118.235093 3 6094ft 237kts
23-Jun-16 12:52 34.934698 -118.223401 3 5503ft 215kts
23-Jun-16 12:54 34.992797 -118.212405 4 5536ft 217kts
23-Jun-16 12:55 35.053196 -118.201714 4 5555ft 221kts
23-Jun-16 12:56 35.112091 -118.182571 21 5589ft 224kts
23-Jun-16 12:56 35.149191 -118.144927 70 5486ft 219kts
23-Jun-16 12:58 35.165787 -118.060572 66 4303ft 205kts
23-Jun-16 12:58 35.181577 -118.009700 67 3654ft 167kts
23-Jun-16 12:59 35.189231 -117.957830 140 3618ft 149kts
23-Jun-16 13:00 35.162387 -117.961173 256 2817ft 84kts
23-Jun-16 13:01 35.157040 -117.988418 263 2609ft 84kts
23-Jun-16 13:02 35.151666 -118.014965 255 2440ft 30kts
23-Jun-16 13:03 35.150221 -118.015781 82 2441ft 0kts
23-Jun-16 13:04 35.150221 -118.015781 82 2441ft 0kts

Navigation Log

Ident Type
Flight plan parsing failed, navigation log unavailable